Terminal Aerodrome Forecast
Issued by NWS

Home | Current Version | Previous Version | Text Only | Print | Product List | Glossary Off
Versions: 1 2 3 4 5 6 7 8 9 10 11 12 13 14 15 16 17 18 19 20

000
FTUS43 KBIS 281100
TAFDIK
TAF
KDIK 281129Z 2812/2912 27011KT P6SM SCT110 BKN150
      TEMPO 2817/2819 SCT004 BKN011
     FM281900 32021G30KT P6SM VCSH OVC005
     FM290000 31018G26KT P6SM -SHSN OVC006
     FM290600 32013G18KT P6SM -SHSN OVC008=

USA.gov is the U.S. government's official web portal to all federal, state and local government web resources and services.